createdAt,value
2023-04-20T00:00:23.465Z,4.60
2023-04-20T00:05:43.597Z,3.30
2023-04-20T00:10:42.582Z,3.60
2023-04-20T00:15:42.114Z,3.20
2023-04-20T00:20:41.465Z,2.60
2023-04-20T00:25:40.332Z,3.10
2023-04-20T00:30:39.247Z,2.90
2023-04-20T00:35:38.238Z,3.20
2023-04-20T00:40:37.059Z,3.40
2023-04-20T00:45:36.934Z,3.00
2023-04-20T00:50:36.831Z,3.90
2023-04-20T00:55:40.211Z,3.20
2023-04-20T01:00:39.596Z,4.50
2023-04-20T01:05:39.099Z,3.80
2023-04-20T01:10:38.957Z,4.80
2023-04-20T01:15:39.325Z,4.50
2023-04-20T01:20:37.982Z,4.60
2023-04-20T01:25:37.607Z,4.30
2023-04-20T01:30:38.448Z,4.70
2023-04-20T01:35:37.758Z,4.60
2023-04-20T01:40:37.731Z,5.30
2023-04-20T01:45:37.524Z,4.70
2023-04-20T01:50:37.655Z,4.60
2023-04-20T01:55:37.113Z,5.10
2023-04-20T02:00:35.924Z,4.10
2023-04-20T02:05:35.865Z,4.50
2023-04-20T02:10:35.156Z,4.40
2023-04-20T02:15:34.523Z,5.10
2023-04-20T02:20:33.866Z,5.50
2023-04-20T02:25:33.085Z,5.10
2023-04-20T02:30:33.131Z,5.10
2023-04-20T02:35:32.223Z,4.20
2023-04-20T02:40:31.391Z,5.00
2023-04-20T02:45:31.079Z,5.40
2023-04-20T02:50:31.426Z,5.50
2023-04-20T02:55:39.584Z,5.20
2023-04-20T03:00:50.554Z,4.40
2023-04-20T03:05:50.281Z,5.90
2023-04-20T03:10:49.473Z,5.70
2023-04-20T03:15:51.537Z,4.80
2023-04-20T03:21:01.028Z,6.10
2023-04-20T03:26:01.837Z,5.40
2023-04-20T03:31:08.918Z,5.30
2023-04-20T03:36:12.600Z,5.90
2023-04-20T03:41:12.036Z,5.90
2023-04-20T03:46:11.375Z,5.40
2023-04-20T03:51:14.269Z,6.30
2023-04-20T03:56:15.536Z,5.60
2023-04-20T04:01:16.482Z,7.00
2023-04-20T04:06:19.298Z,5.90
2023-04-20T04:11:18.825Z,6.30
2023-04-20T04:16:19.910Z,4.70
2023-04-20T04:21:21.384Z,6.50
2023-04-20T04:26:26.997Z,7.10
2023-04-20T04:31:27.728Z,6.60
2023-04-20T04:36:32.424Z,6.50
2023-04-20T04:41:32.254Z,6.80
2023-04-20T04:46:40.956Z,5.90
2023-04-20T04:51:40.392Z,5.20
2023-04-20T04:56:39.772Z,5.10
2023-04-20T05:01:39.114Z,6.90
2023-04-20T05:06:38.204Z,6.20
2023-04-20T05:11:37.419Z,6.50
2023-04-20T05:16:36.575Z,6.40
2023-04-20T05:21:36.255Z,6.00
2023-04-20T05:26:36.660Z,6.00
2023-04-20T05:31:35.399Z,5.00
2023-04-20T05:36:37.506Z,6.00
2023-04-20T05:41:37.179Z,5.90
2023-04-20T05:46:36.353Z,5.30
2023-04-20T05:51:36.271Z,4.90
2023-04-20T05:56:39.511Z,4.80
2023-04-20T06:01:38.674Z,4.30
2023-04-20T06:06:37.890Z,4.70
2023-04-20T06:11:37.494Z,4.20
2023-04-20T06:16:36.810Z,4.50
2023-04-20T06:21:36.574Z,4.60
2023-04-20T06:26:36.264Z,5.20
2023-04-20T06:31:35.475Z,4.80
2023-04-20T06:36:34.106Z,5.00
2023-04-20T06:41:33.395Z,4.20
2023-04-20T06:46:34.690Z,4.10
2023-04-20T06:51:35.192Z,4.10
2023-04-20T06:56:35.570Z,3.90
2023-04-20T07:01:35.840Z,4.30
2023-04-20T07:06:34.662Z,4.40
2023-04-20T07:11:33.932Z,3.50
2023-04-20T07:16:32.603Z,3.60
2023-04-20T07:21:32.498Z,3.50
2023-04-20T07:26:31.621Z,3.20
2023-04-20T07:31:32.864Z,3.00
2023-04-20T07:36:33.766Z,3.30
2023-04-20T07:41:33.194Z,3.20
2023-04-20T07:46:32.620Z,2.40
2023-04-20T07:51:33.511Z,2.40
2023-04-20T07:56:33.253Z,2.40
2023-04-20T08:01:32.984Z,2.40
2023-04-20T08:06:33.089Z,2.90
2023-04-20T08:11:32.241Z,3.40
2023-04-20T08:16:31.505Z,3.50
2023-04-20T08:21:31.764Z,2.40
2023-04-20T08:26:30.398Z,2.20
2023-04-20T08:31:30.691Z,2.00
2023-04-20T08:36:30.175Z,2.70
2023-04-20T08:41:32.723Z,1.70
2023-04-20T08:46:32.237Z,1.70
2023-04-20T08:51:32.722Z,1.70
2023-04-20T08:56:41.423Z,1.60
2023-04-20T09:01:42.208Z,1.80
2023-04-20T09:06:47.656Z,1.80
2023-04-20T09:11:47.624Z,1.50
2023-04-20T09:17:00.821Z,1.90
2023-04-20T09:22:04.040Z,1.70
2023-04-20T09:27:04.349Z,1.90
2023-04-20T09:32:03.181Z,1.40
2023-04-20T09:37:03.396Z,2.00
2023-04-20T09:42:10.711Z,1.80
2023-04-20T09:47:11.195Z,1.50
2023-04-20T09:52:14.856Z,1.40
2023-04-20T09:57:15.974Z,1.70
2023-04-20T10:02:16.741Z,1.70
2023-04-20T10:07:28.126Z,1.50
2023-04-20T10:12:27.276Z,1.50
2023-04-20T10:17:35.332Z,1.40
2023-04-20T10:22:37.063Z,1.40
2023-04-20T10:27:36.284Z,1.80
2023-04-20T10:32:35.820Z,1.50
2023-04-20T10:37:35.384Z,1.50
2023-04-20T10:42:44.670Z,1.60
2023-04-20T10:47:45.613Z,1.50
2023-04-20T10:52:47.222Z,1.70
2023-04-20T10:57:49.871Z,1.70
2023-04-20T11:02:53.768Z,2.20
2023-04-20T11:08:02.174Z,1.90
2023-04-20T11:13:01.670Z,1.70
2023-04-20T11:18:09.922Z,2.00
2023-04-20T11:23:09.185Z,1.60
2023-04-20T11:28:12.968Z,2.30
2023-04-20T11:33:14.219Z,2.30
2023-04-20T11:38:13.563Z,1.90
2023-04-20T11:43:12.882Z,1.70
2023-04-20T11:48:14.184Z,2.10
2023-04-20T11:53:15.040Z,1.70
2023-04-20T11:58:14.534Z,2.00
2023-04-20T12:03:13.783Z,1.80
2023-04-20T12:08:13.088Z,1.70
2023-04-20T12:13:12.700Z,1.90
2023-04-20T12:18:12.307Z,2.00
2023-04-20T12:23:12.085Z,2.10
2023-04-20T12:28:11.648Z,2.10
2023-04-20T12:33:11.059Z,2.20
2023-04-20T12:38:11.795Z,2.30
2023-04-20T12:43:13.035Z,2.20
2023-04-20T12:48:15.109Z,2.80
2023-04-20T12:53:14.521Z,2.40
2023-04-20T12:58:16.301Z,2.50
2023-04-20T13:03:16.470Z,2.50
2023-04-20T13:08:16.341Z,3.00
2023-04-20T13:13:15.776Z,2.60
2023-04-20T13:18:15.578Z,2.60
2023-04-20T13:23:15.606Z,2.10
2023-04-20T13:28:15.633Z,2.40
2023-04-20T13:33:14.860Z,2.80
2023-04-20T13:38:14.603Z,2.70
2023-04-20T13:43:14.100Z,2.70
2023-04-20T13:48:13.637Z,2.60
2023-04-20T13:53:13.228Z,2.90
2023-04-20T13:58:12.190Z,3.10
2023-04-20T14:03:15.856Z,2.80
2023-04-20T14:08:15.133Z,2.70
2023-04-20T14:13:15.427Z,2.40
2023-04-20T14:18:15.087Z,3.50
2023-04-20T14:23:15.185Z,3.50
2023-04-20T14:28:15.246Z,3.60
2023-04-20T14:33:14.576Z,3.60
2023-04-20T14:38:13.932Z,3.80
2023-04-20T14:43:12.829Z,3.40
2023-04-20T14:48:14.063Z,4.00
2023-04-20T14:53:12.577Z,3.60
2023-04-20T14:58:17.906Z,3.70
2023-04-20T15:04:05.813Z,3.50
2023-04-20T15:09:05.006Z,3.80
2023-04-20T15:14:04.407Z,3.60
2023-04-20T15:19:03.585Z,3.60
2023-04-20T15:24:03.872Z,3.80
2023-04-20T15:29:03.339Z,3.70
2023-04-20T15:34:04.537Z,3.80
2023-04-20T15:39:08.492Z,4.00
2023-04-20T15:44:10.153Z,4.00
2023-04-20T15:49:12.826Z,4.00
2023-04-20T15:54:49.923Z,4.00
2023-04-20T16:00:41.767Z,4.30
2023-04-20T16:05:48.112Z,4.90
2023-04-20T16:10:50.671Z,5.50
2023-04-20T16:15:59.152Z,5.70
2023-04-20T16:20:59.941Z,5.70
2023-04-20T16:26:01.336Z,5.60
2023-04-20T16:31:01.402Z,5.40
2023-04-20T16:42:27.757Z,5.80
2023-04-20T16:47:27.434Z,5.70
2023-04-20T16:52:26.799Z,5.60
2023-04-20T16:57:26.329Z,5.80
2023-04-20T17:02:31.508Z,5.50
2023-04-20T17:07:31.923Z,5.40
2023-04-20T17:12:31.981Z,5.60
2023-04-20T17:17:32.038Z,5.00
2023-04-20T17:22:30.839Z,5.40
2023-04-20T17:27:30.784Z,5.70
2023-04-20T17:32:30.335Z,5.70
2023-04-20T17:37:30.042Z,5.90
2023-04-20T17:42:29.538Z,5.50
2023-04-20T17:47:32.891Z,5.40
2023-04-20T17:52:32.903Z,5.90
2023-04-20T17:57:32.349Z,6.30
2023-04-20T18:02:34.869Z,6.10
2023-04-20T18:07:34.866Z,6.70
2023-04-20T18:12:36.078Z,6.90
2023-04-20T18:17:35.157Z,6.70
2023-04-20T18:22:34.370Z,6.20
2023-04-20T18:27:34.563Z,6.20
2023-04-20T18:32:36.560Z,5.90
2023-04-20T18:37:36.403Z,7.20
2023-04-20T18:42:36.218Z,7.10
2023-04-20T18:47:36.015Z,7.40
2023-04-20T18:52:42.245Z,7.80
2023-04-20T18:57:48.639Z,7.20
2023-04-20T19:03:33.181Z,8.10
2023-04-20T19:08:35.087Z,7.90
2023-04-20T19:13:44.622Z,7.80
2023-04-20T19:18:46.901Z,8.40
2023-04-20T19:23:46.285Z,8.70
2023-04-20T19:28:49.050Z,8.50
2023-04-20T19:33:51.403Z,8.70
2023-04-20T19:38:54.072Z,8.50
2023-04-20T19:43:59.633Z,8.40
2023-04-20T19:49:04.462Z,8.10
2023-04-20T19:54:06.001Z,8.00
2023-04-20T19:59:05.610Z,8.80
2023-04-20T20:04:09.040Z,9.20
2023-04-20T20:09:09.862Z,8.60
2023-04-20T20:14:09.636Z,10.20
2023-04-20T20:19:10.339Z,8.80
2023-04-20T20:24:11.702Z,8.40
2023-04-20T20:29:12.641Z,8.00
2023-04-20T20:34:12.879Z,8.10
2023-04-20T20:39:12.923Z,7.80
2023-04-20T20:44:13.979Z,8.00
2023-04-20T20:49:14.027Z,8.50
2023-04-20T20:54:13.953Z,8.00
2023-04-20T20:59:13.403Z,8.50
2023-04-20T21:04:13.050Z,7.80
2023-04-20T21:09:12.157Z,8.40
2023-04-20T21:14:11.180Z,8.10
2023-04-20T21:19:11.382Z,7.60
2023-04-20T21:24:11.902Z,7.70
2023-04-20T21:29:12.072Z,7.60
2023-04-20T21:34:11.739Z,7.40
2023-04-20T21:39:10.970Z,8.10
2023-04-20T21:44:10.778Z,7.50
2023-04-20T21:49:12.976Z,7.20
2023-04-20T21:54:12.804Z,6.80
2023-04-20T21:59:11.475Z,6.10
2023-04-20T22:04:11.237Z,6.70
2023-04-20T22:09:10.668Z,8.30
2023-04-20T22:14:10.497Z,7.10
2023-04-20T22:19:10.376Z,6.60
2023-04-20T22:24:11.684Z,6.10
2023-04-20T22:29:11.755Z,6.90
2023-04-20T22:34:11.003Z,6.40
2023-04-20T22:39:12.200Z,6.30
2023-04-20T22:44:12.851Z,6.20
2023-04-20T22:49:13.781Z,6.10
2023-04-20T22:54:14.271Z,6.60
2023-04-20T22:59:14.610Z,7.10
2023-04-20T23:05:02.632Z,7.30
2023-04-20T23:11:08.696Z,6.90
2023-04-20T23:16:34.788Z,6.50
2023-04-20T23:22:35.620Z,6.60
2023-04-20T23:27:56.394Z,5.70
2023-04-20T23:32:56.222Z,6.50
2023-04-20T23:37:58.248Z,6.00
2023-04-20T23:42:59.434Z,6.10
2023-04-20T23:48:01.427Z,6.70
2023-04-20T23:53:06.006Z,6.50
2023-04-20T23:58:07.916Z,6.30
